sensor_id;sensor_type;location;lat;lon;timestamp;pressure;altitude;pressure_sealevel;temperature;humidity
10167;BME280;62970;53.130;8.244;2023-02-22T06:35:05;101388.84;;;7.42;79.77
10167;BME280;62970;53.130;8.244;2023-02-22T06:37:38;101389.72;;;7.46;79.79
10167;BME280;62970;53.130;8.244;2023-02-22T06:40:09;101384.53;;;7.47;79.53
10167;BME280;62970;53.130;8.244;2023-02-22T06:42:41;101381.06;;;7.47;79.36
10167;BME280;62970;53.130;8.244;2023-02-22T06:45:13;101377.59;;;7.49;79.30
10167;BME280;62970;53.130;8.244;2023-02-22T06:47:47;101373.28;;;7.48;78.78
10167;BME280;62970;53.130;8.244;2023-02-22T06:50:28;101387.13;;;7.47;78.68
10167;BME280;62970;53.130;8.244;2023-02-22T06:53:00;101386.25;;;7.48;78.55
10167;BME280;62970;53.130;8.244;2023-02-22T06:55:33;101387.97;;;7.48;78.88
10167;BME280;62970;53.130;8.244;2023-02-22T06:58:03;101383.66;;;7.50;78.78
10167;BME280;62970;53.130;8.244;2023-02-22T07:00:33;101384.53;;;7.49;78.20
10167;BME280;62970;53.130;8.244;2023-02-22T07:03:06;101387.97;;;7.49;78.35
10167;BME280;62970;53.130;8.244;2023-02-22T07:05:39;101383.66;;;7.50;78.17
10167;BME280;62970;53.130;8.244;2023-02-22T07:08:09;101385.38;;;7.51;78.17
10167;BME280;62970;53.130;8.244;2023-02-22T07:10:39;101387.13;;;7.50;78.39
10167;BME280;62970;53.130;8.244;2023-02-22T07:13:09;101388.84;;;7.51;78.62
10167;BME280;62970;53.130;8.244;2023-02-22T07:15:40;101389.72;;;7.52;78.47
10167;BME280;62970;53.130;8.244;2023-02-22T07:18:12;101387.97;;;7.54;78.03
10167;BME280;62970;53.130;8.244;2023-02-22T07:20:44;101388.84;;;7.56;78.40
10167;BME280;62970;53.130;8.244;2023-02-22T07:23:39;101389.69;;;7.58;78.41
10167;BME280;62970;53.130;8.244;2023-02-22T07:26:10;101380.19;;;7.63;78.01
10167;BME280;62970;53.130;8.244;2023-02-22T07:28:40;101388.81;;;7.67;78.08
10167;BME280;62970;53.130;8.244;2023-02-22T07:31:09;101389.69;;;7.70;77.91
10167;BME280;62970;53.130;8.244;2023-02-22T07:33:44;101383.63;;;7.71;77.72
10167;BME280;62970;53.130;8.244;2023-02-22T07:36:16;101374.97;;;7.72;77.99
10167;BME280;62970;53.130;8.244;2023-02-22T07:38:45;101384.47;;;7.76;78.09
10167;BME280;62970;53.130;8.244;2023-02-22T07:41:15;101381.88;;;7.79;77.87
10167;BME280;62970;53.130;8.244;2023-02-22T07:43:45;101381.00;;;7.80;77.96
10167;BME280;62970;53.130;8.244;2023-02-22T07:46:14;101381.84;;;7.82;77.67
10167;BME280;62970;53.130;8.244;2023-02-22T07:48:44;101377.53;;;7.84;77.50
10167;BME280;62970;53.130;8.244;2023-02-22T07:51:19;101378.38;;;7.86;77.31
10167;BME280;62970;53.130;8.244;2023-02-22T07:53:53;101377.50;;;7.89;77.41
10167;BME280;62970;53.130;8.244;2023-02-22T07:56:24;101374.03;;;7.91;77.48
10167;BME280;62970;53.130;8.244;2023-02-22T07:58:55;101369.72;;;7.92;77.28
10167;BME280;62970;53.130;8.244;2023-02-22T08:01:26;101368.84;;;7.96;77.33
10167;BME280;62970;53.130;8.244;2023-02-22T08:03:57;101367.97;;;7.99;77.10
10167;BME280;62970;53.130;8.244;2023-02-22T08:06:29;101373.16;;;8.02;76.85
10167;BME280;62970;53.130;8.244;2023-02-22T08:08:58;101378.31;;;8.06;76.86
10167;BME280;62970;53.130;8.244;2023-02-22T08:11:31;101372.25;;;8.10;76.98
10167;BME280;62970;53.130;8.244;2023-02-22T08:14:00;101371.34;;;8.16;77.01
10167;BME280;62970;53.130;8.244;2023-02-22T08:16:30;101368.75;;;8.20;76.93
10167;BME280;62970;53.130;8.244;2023-02-22T08:18:59;101362.66;;;8.26;76.69
10167;BME280;62970;53.130;8.244;2023-02-22T08:21:32;101362.63;;;8.32;76.85
10167;BME280;62970;53.130;8.244;2023-02-22T08:24:04;101360.00;;;8.38;76.77
10167;BME280;62970;53.130;8.244;2023-02-22T08:26:33;101356.47;;;8.47;76.79
10167;BME280;62970;53.130;8.244;2023-02-22T08:29:03;101350.38;;;8.51;76.39
10167;BME280;62970;53.130;8.244;2023-02-22T08:31:32;101350.34;;;8.57;76.13
10167;BME280;62970;53.130;8.244;2023-02-22T08:34:04;101350.31;;;8.63;76.56
10167;BME280;62970;53.130;8.244;2023-02-22T08:36:40;101347.66;;;8.69;76.61
10167;BME280;62970;53.130;8.244;2023-02-22T08:39:12;101353.69;;;8.74;76.36
10167;BME280;62970;53.130;8.244;2023-02-22T08:41:43;101355.44;;;8.78;75.85
10167;BME280;62970;53.130;8.244;2023-02-22T08:44:14;101355.41;;;8.83;75.85
10167;BME280;62970;53.130;8.244;2023-02-22T08:46:47;101357.13;;;8.85;75.97
10167;BME280;62970;53.130;8.244;2023-02-22T08:49:17;101350.16;;;8.89;75.60
10167;BME280;62970;53.130;8.244;2023-02-22T08:51:49;101349.28;;;8.91;76.03
10167;BME280;62970;53.130;8.244;2023-02-22T08:54:20;101348.38;;;8.97;75.55
10167;BME280;62970;53.130;8.244;2023-02-22T08:56:49;101348.31;;;9.02;75.57
10167;BME280;62970;53.130;8.244;2023-02-22T08:59:21;101348.28;;;9.08;75.73
10167;BME280;62970;53.130;8.244;2023-02-22T09:01:52;101341.28;;;9.16;75.33
10167;BME280;62970;53.130;8.244;2023-02-22T09:04:23;101346.44;;;9.20;75.24
10167;BME280;62970;53.130;8.244;2023-02-22T09:06:56;101345.53;;;9.24;75.32
10167;BME280;62970;53.130;8.244;2023-02-22T09:09:25;101342.00;;;9.32;75.29
10167;BME280;62970;53.130;8.244;2023-02-22T09:11:54;101341.06;;;9.37;74.93
10167;BME280;62970;53.130;8.244;2023-02-22T09:14:23;101334.09;;;9.42;74.82
10167;BME280;62970;53.130;8.244;2023-02-22T09:16:52;101345.31;;;9.47;74.95
10167;BME280;62970;53.130;8.244;2023-02-22T09:19:24;101333.13;;;9.49;74.54
10167;BME280;62970;53.130;8.244;2023-02-22T09:21:58;101341.78;;;9.53;74.40
10167;BME280;62970;53.130;8.244;2023-02-22T09:24:30;101337.41;;;9.55;74.49
10167;BME280;62970;53.130;8.244;2023-02-22T09:26:59;101334.81;;;9.56;74.54
10167;BME280;62970;53.130;8.244;2023-02-22T09:29:30;101330.47;;;9.57;73.88
10167;BME280;62970;53.130;8.244;2023-02-22T09:32:01;101334.78;;;9.58;73.64
10167;BME280;62970;53.130;8.244;2023-02-22T09:34:32;101330.38;;;9.63;73.80
10167;BME280;62970;53.130;8.244;2023-02-22T09:37:04;101327.72;;;9.68;73.74
10167;BME280;62970;53.130;8.244;2023-02-22T09:39:35;101325.13;;;9.69;73.66
10167;BME280;62970;53.130;8.244;2023-02-22T09:42:12;101314.69;;;9.71;73.21
10167;BME280;62970;53.130;8.244;2023-02-22T09:44:48;101324.19;;;9.75;73.66
10167;BME280;62970;53.130;8.244;2023-02-22T09:47:22;101321.53;;;9.79;73.58
10167;BME280;62970;53.130;8.244;2023-02-22T09:50:01;101323.19;;;9.85;73.24
10167;BME280;62970;53.130;8.244;2023-02-22T09:52:39;101315.31;;;9.89;72.87
10167;BME280;62970;53.130;8.244;2023-02-22T09:55:23;101323.97;;;9.92;72.87
10167;BME280;62970;53.130;8.244;2023-02-22T09:58:12;101324.75;;;10.00;72.95
10167;BME280;62970;53.130;8.244;2023-02-22T10:00:48;101322.97;;;10.06;73.04
10167;BME280;62970;53.130;8.244;2023-02-22T10:03:24;101324.59;;;10.15;73.17
10167;BME280;62970;53.130;8.244;2023-02-22T10:06:01;101318.41;;;10.25;72.76
10167;BME280;62970;53.130;8.244;2023-02-22T10:08:38;101317.38;;;10.37;73.19
10167;BME280;62970;53.130;8.244;2023-02-22T10:11:30;101309.41;;;10.47;73.22
10167;BME280;62970;53.130;8.244;2023-02-22T10:14:26;101304.88;;;10.59;72.46
10167;BME280;62970;53.130;8.244;2023-02-22T10:17:04;101311.69;;;10.67;72.29
10167;BME280;62970;53.130;8.244;2023-02-22T10:19:45;101304.59;;;10.77;72.29
10167;BME280;62970;53.130;8.244;2023-02-22T10:22:42;101297.50;;;10.85;72.55
10167;BME280;62970;53.130;8.244;2023-02-22T10:25:27;101292.16;;;10.93;72.13
10167;BME280;62970;53.130;8.244;2023-02-22T10:28:08;101291.13;;;11.03;72.31
10167;BME280;62970;53.130;8.244;2023-02-22T10:30:46;101287.47;;;11.13;72.13
10167;BME280;62970;53.130;8.244;2023-02-22T10:33:22;101293.44;;;11.20;71.56
10167;BME280;62970;53.130;8.244;2023-02-22T10:35:55;101286.47;;;11.20;71.21
10167;BME280;62970;53.130;8.244;2023-02-22T10:38:31;101281.28;;;11.17;70.65
10167;BME280;62970;53.130;8.244;2023-02-22T10:41:21;101278.78;;;11.11;70.71
10167;BME280;62970;53.130;8.244;2023-02-22T10:43:56;101278.91;;;11.05;70.35
10167;BME280;62970;53.130;8.244;2023-02-22T10:46:29;101281.59;;;11.00;70.19
10167;BME280;62970;53.130;8.244;2023-02-22T10:49:03;101279.91;;;10.98;70.25
10167;BME280;62970;53.130;8.244;2023-02-22T10:51:35;101272.09;;;10.96;70.28
10167;BME280;62970;53.130;8.244;2023-02-22T10:54:22;101272.97;;;10.97;70.48
10167;BME280;62970;53.130;8.244;2023-02-22T10:57:00;101272.91;;;11.00;70.29
10167;BME280;62970;53.130;8.244;2023-02-22T10:59:33;101268.47;;;11.05;70.10
10167;BME280;62970;53.130;8.244;2023-02-22T11:02:18;101269.22;;;11.11;70.85
10167;BME280;62970;53.130;8.244;2023-02-22T11:04:50;101261.22;;;11.21;70.54
10167;BME280;62970;53.130;8.244;2023-02-22T11:07:26;101248.84;;;11.30;70.75
10167;BME280;62970;53.130;8.244;2023-02-22T11:09:58;101259.09;;;11.41;70.08
10167;BME280;62970;53.130;8.244;2023-02-22T11:12:34;101250.22;;;11.51;70.15
10167;BME280;62970;53.130;8.244;2023-02-22T11:15:27;101250.00;;;11.62;70.08
10167;BME280;62970;53.130;8.244;2023-02-22T11:18:00;101251.56;;;11.70;70.12
10167;BME280;62970;53.130;8.244;2023-02-22T11:20:34;101250.53;;;11.77;69.89
10167;BME280;62970;53.130;8.244;2023-02-22T11:23:05;101244.25;;;11.86;69.75
10167;BME280;62970;53.130;8.244;2023-02-22T11:25:37;101242.34;;;11.94;69.76
10167;BME280;62970;53.130;8.244;2023-02-22T11:28:18;101242.19;;;12.02;69.58
10167;BME280;62970;53.130;8.244;2023-02-22T11:30:58;101242.91;;;12.08;69.51
10167;BME280;62970;53.130;8.244;2023-02-22T11:33:49;101235.81;;;12.13;69.44
10167;BME280;62970;53.130;8.244;2023-02-22T11:36:33;101234.03;;;12.16;68.88
10167;BME280;62970;53.130;8.244;2023-02-22T11:39:21;101226.13;;;12.19;68.90
10167;BME280;62970;53.130;8.244;2023-02-22T11:41:54;101234.75;;;12.22;68.87
10167;BME280;62970;53.130;8.244;2023-02-22T11:44:30;101219.06;;;12.22;68.97
10167;BME280;62970;53.130;8.244;2023-02-22T11:47:00;101212.06;;;12.23;68.16
10167;BME280;62970;53.130;8.244;2023-02-22T11:49:36;101213.03;;;12.19;68.47
10167;BME280;62970;53.130;8.244;2023-02-22T11:52:19;101208.81;;;12.13;68.31
10167;BME280;62970;53.130;8.244;2023-02-22T11:55:07;101197.56;;;12.09;68.62
10167;BME280;62970;53.130;8.244;2023-02-22T11:58:02;101207.16;;;12.09;68.84
10167;BME280;62970;53.130;8.244;2023-02-22T12:00:47;101201.88;;;12.12;68.61
10167;BME280;62970;53.130;8.244;2023-02-22T12:04:00;101198.31;;;12.15;68.46
10167;BME280;62970;53.130;8.244;2023-02-22T12:06:44;101202.56;;;12.20;68.75
10167;BME280;62970;53.130;8.244;2023-02-22T12:09:23;101204.19;;;12.24;68.81
10167;BME280;62970;53.130;8.244;2023-02-22T12:12:07;101197.13;;;12.28;68.70
10167;BME280;62970;53.130;8.244;2023-02-22T12:14:48;101194.41;;;12.32;68.46
10167;BME280;62970;53.130;8.244;2023-02-22T12:17:35;101192.50;;;12.39;68.33
10167;BME280;62970;53.130;8.244;2023-02-22T12:20:17;101187.16;;;12.43;68.38
10167;BME280;62970;53.130;8.244;2023-02-22T12:23:01;101185.34;;;12.47;68.56
10167;BME280;62970;53.130;8.244;2023-02-22T12:25:35;101180.03;;;12.50;68.08
10167;BME280;62970;53.130;8.244;2023-02-22T12:28:17;101174.78;;;12.50;67.74
10167;BME280;62970;53.130;8.244;2023-02-22T12:30:55;101171.31;;;12.50;68.13
10167;BME280;62970;53.130;8.244;2023-02-22T12:33:44;101167.81;;;12.51;68.05
10167;BME280;62970;53.130;8.244;2023-02-22T12:36:21;101163.34;;;12.54;68.18
10167;BME280;62970;53.130;8.244;2023-02-22T12:39:01;101167.66;;;12.57;68.05
10167;BME280;62970;53.130;8.244;2023-02-22T12:41:37;101170.25;;;12.58;67.86
10167;BME280;62970;53.130;8.244;2023-02-22T12:44:14;101168.53;;;12.57;68.01
10167;BME280;62970;53.130;8.244;2023-02-22T12:46:48;101160.66;;;12.59;67.40
10167;BME280;62970;53.130;8.244;2023-02-22T12:49:29;101148.47;;;12.56;67.41
10167;BME280;62970;53.130;8.244;2023-02-22T12:52:08;101164.25;;;12.53;67.19
10167;BME280;62970;53.130;8.244;2023-02-22T12:54:45;101153.84;;;12.52;67.42
10167;BME280;62970;53.130;8.244;2023-02-22T12:57:24;101152.94;;;12.53;67.81
10167;BME280;62970;53.130;8.244;2023-02-22T13:00:04;101154.56;;;12.57;67.44
10167;BME280;62970;53.130;8.244;2023-02-22T13:02:38;101156.28;;;12.61;67.85
10167;BME280;62970;53.130;8.244;2023-02-22T13:05:17;101156.19;;;12.64;67.62
10167;BME280;62970;53.130;8.244;2023-02-22T13:08:02;101157.00;;;12.66;67.53
10167;BME280;62970;53.130;8.244;2023-02-22T13:13:38;101154.41;;;12.66;67.15
10167;BME280;62970;53.130;8.244;2023-02-22T13:16:26;101158.78;;;12.65;67.36
10167;BME280;62970;53.130;8.244;2023-02-22T13:19:23;101161.25;;;12.70;67.19
10167;BME280;62970;53.130;8.244;2023-02-22T13:22:11;101156.00;;;12.71;67.17
10167;BME280;62970;53.130;8.244;2023-02-22T13:24:57;101153.34;;;12.73;67.34
10167;BME280;62970;53.130;8.244;2023-02-22T13:27:37;101153.34;;;12.73;66.76
10167;BME280;62970;53.130;8.244;2023-02-22T13:30:22;101151.53;;;12.75;67.17
10167;BME280;62970;53.130;8.244;2023-02-22T13:33:23;101148.88;;;12.77;67.01
10167;BME280;62970;53.130;8.244;2023-02-22T13:36:20;101147.97;;;12.78;66.90
10167;BME280;62970;53.130;8.244;2023-02-22T13:39:21;101141.81;;;12.80;67.52
10167;BME280;62970;53.130;8.244;2023-02-22T13:42:14;101140.88;;;12.83;67.30
10167;BME280;62970;53.130;8.244;2023-02-22T13:45:27;101140.06;;;12.81;67.28
10167;BME280;62970;53.130;8.244;2023-02-22T13:48:23;101127.09;;;12.76;66.54
10167;BME280;62970;53.130;8.244;2023-02-22T13:51:13;101126.28;;;12.74;66.88
10167;BME280;62970;53.130;8.244;2023-02-22T13:53:51;101133.38;;;12.69;66.72
10167;BME280;62970;53.130;8.244;2023-02-22T13:56:26;101125.63;;;12.66;66.61
10167;BME280;62970;53.130;8.244;2023-02-22T13:59:05;101124.03;;;12.60;66.52
10167;BME280;62970;53.130;8.244;2023-02-22T14:01:44;101123.22;;;12.55;66.29
10167;BME280;62970;53.130;8.244;2023-02-22T14:04:36;101119.88;;;12.50;66.13
10167;BME280;62970;53.130;8.244;2023-02-22T14:10:44;101114.00;;;12.40;66.69
10167;BME280;62970;53.130;8.244;2023-02-22T14:13:19;101119.25;;;12.40;66.69
10167;BME280;62970;53.130;8.244;2023-02-22T14:16:21;101118.38;;;12.40;66.50
10167;BME280;62970;53.130;8.244;2023-02-22T14:19:02;101121.94;;;12.37;66.59
10167;BME280;62970;53.130;8.244;2023-02-22T14:21:36;101114.97;;;12.38;66.81
10167;BME280;62970;53.130;8.244;2023-02-22T14:24:22;101110.59;;;12.38;66.40
10167;BME280;62970;53.130;8.244;2023-02-22T14:26:58;101105.34;;;12.38;66.50
10167;BME280;62970;53.130;8.244;2023-02-22T14:29:33;101106.22;;;12.39;66.28
10167;BME280;62970;53.130;8.244;2023-02-22T14:32:06;101107.97;;;12.38;66.28
10167;BME280;62970;53.130;8.244;2023-02-22T14:34:43;101107.13;;;12.38;66.67
10167;BME280;62970;53.130;8.244;2023-02-22T14:37:17;101109.72;;;12.38;66.38
10167;BME280;62970;53.130;8.244;2023-02-22T14:39:59;101100.19;;;12.35;66.72
10167;BME280;62970;53.130;8.244;2023-02-22T14:42:40;101105.44;;;12.35;66.69
10167;BME280;62970;53.130;8.244;2023-02-22T14:45:23;101106.38;;;12.33;66.59
10167;BME280;62970;53.130;8.244;2023-02-22T14:47:57;101096.81;;;12.32;66.77
10167;BME280;62970;53.130;8.244;2023-02-22T14:50:47;101102.16;;;12.27;66.95
10167;BME280;62970;53.130;8.244;2023-02-22T14:53:25;101102.28;;;12.23;66.71
10167;BME280;62970;53.130;8.244;2023-02-22T14:56:00;101098.00;;;12.19;66.91
10167;BME280;62970;53.130;8.244;2023-02-22T14:58:41;101108.56;;;12.16;66.91
10167;BME280;62970;53.130;8.244;2023-02-22T15:01:33;101112.19;;;12.10;67.10
10167;BME280;62970;53.130;8.244;2023-02-22T15:04:17;101100.06;;;12.06;67.07
10167;BME280;62970;53.130;8.244;2023-02-22T15:06:48;101102.75;;;12.03;66.85
10167;BME280;62970;53.130;8.244;2023-02-22T15:09:22;101113.28;;;12.00;66.74
10167;BME280;62970;53.130;8.244;2023-02-22T15:12:08;101104.63;;;11.98;67.35
10167;BME280;62970;53.130;8.244;2023-02-22T15:14:40;101101.19;;;11.96;66.97
10167;BME280;62970;53.130;8.244;2023-02-22T15:17:19;101105.59;;;11.94;67.25
10167;BME280;62970;53.130;8.244;2023-02-22T15:19:53;101100.41;;;11.92;67.10
10167;BME280;62970;53.130;8.244;2023-02-22T15:22:27;101097.88;;;11.89;67.29
10167;BME280;62970;53.130;8.244;2023-02-22T15:25:00;101104.00;;;11.88;67.48
10167;BME280;62970;53.130;8.244;2023-02-22T15:27:30;101101.41;;;11.87;67.44
10167;BME280;62970;53.130;8.244;2023-02-22T15:30:06;101105.84;;;11.83;67.73
10167;BME280;62970;53.130;8.244;2023-02-22T15:32:39;101098.94;;;11.80;67.79
10167;BME280;62970;53.130;8.244;2023-02-22T15:35:17;101098.16;;;11.77;67.92
10167;BME280;62970;53.130;8.244;2023-02-22T15:38:00;101102.56;;;11.75;68.00
10167;BME280;62970;53.130;8.244;2023-02-22T15:40:38;101107.84;;;11.72;67.52
10167;BME280;62970;53.130;8.244;2023-02-22T15:43:18;101102.69;;;11.69;67.66
10167;BME280;62970;53.130;8.244;2023-02-22T15:45:50;101102.69;;;11.69;67.99
10167;BME280;62970;53.130;8.244;2023-02-22T15:48:22;101102.81;;;11.64;67.84
10167;BME280;62970;53.130;8.244;2023-02-22T15:51:04;101100.25;;;11.61;68.35
10167;BME280;62970;53.130;8.244;2023-02-22T15:53:46;101099.47;;;11.58;67.88
10167;BME280;62970;53.130;8.244;2023-02-22T15:56:24;101099.53;;;11.55;68.11
10167;BME280;62970;53.130;8.244;2023-02-22T15:59:00;101097.91;;;11.51;68.53
10167;BME280;62970;53.130;8.244;2023-02-22T16:01:36;101101.47;;;11.46;68.09
10167;BME280;62970;53.130;8.244;2023-02-22T16:04:17;101099.81;;;11.42;68.61
10167;BME280;62970;53.130;8.244;2023-02-22T16:06:47;101095.53;;;11.38;68.60
10167;BME280;62970;53.130;8.244;2023-02-22T16:09:20;101101.75;;;11.33;68.39
10167;BME280;62970;53.130;8.244;2023-02-22T16:12:19;101099.25;;;11.27;68.25
10167;BME280;62970;53.130;8.244;2023-02-22T16:14:52;101101.09;;;11.22;68.88
10167;BME280;62970;53.130;8.244;2023-02-22T16:17:32;101097.72;;;11.16;68.45
10167;BME280;62970;53.130;8.244;2023-02-22T16:20:44;101110.06;;;11.08;68.79
10167;BME280;62970;53.130;8.244;2023-02-22T16:23:25;101108.47;;;11.01;68.67
10167;BME280;62970;53.130;8.244;2023-02-22T16:26:18;101108.63;;;10.94;68.65
10167;BME280;62970;53.130;8.244;2023-02-22T16:28:50;101107.00;;;10.88;68.77
10167;BME280;62970;53.130;8.244;2023-02-22T16:31:22;101113.22;;;10.81;68.95
10167;BME280;62970;53.130;8.244;2023-02-22T16:33:53;101109.84;;;10.76;69.40
10167;BME280;62970;53.130;8.244;2023-02-22T16:36:38;101112.59;;;10.68;69.39
10167;BME280;62970;53.130;8.244;2023-02-22T16:39:16;101117.91;;;10.64;69.71
10167;BME280;62970;53.130;8.244;2023-02-22T16:41:49;101110.16;;;10.59;69.78
10167;BME280;62970;53.130;8.244;2023-02-22T16:44:19;101116.31;;;10.55;69.37
10167;BME280;62970;53.130;8.244;2023-02-22T16:46:50;101118.16;;;10.50;69.92
10167;BME280;62970;53.130;8.244;2023-02-22T16:49:22;101123.44;;;10.45;70.12
10167;BME280;62970;53.130;8.244;2023-02-22T16:51:58;101122.66;;;10.42;69.87
10167;BME280;62970;53.130;8.244;2023-02-22T16:54:34;101122.72;;;10.37;69.77
10167;BME280;62970;53.130;8.244;2023-02-22T16:57:05;101121.03;;;10.35;70.06
10167;BME280;62970;53.130;8.244;2023-02-22T16:59:38;101117.63;;;10.31;69.86
10167;BME280;62970;53.130;8.244;2023-02-22T17:02:11;101123.75;;;10.29;69.93
10167;BME280;62970;53.130;8.244;2023-02-22T17:04:45;101125.50;;;10.27;70.19
10167;BME280;62970;53.130;8.244;2023-02-22T17:07:21;101128.16;;;10.24;70.39
10167;BME280;62970;53.130;8.244;2023-02-22T17:09:59;101124.72;;;10.22;70.21
10167;BME280;62970;53.130;8.244;2023-02-22T17:12:29;101129.97;;;10.20;70.60
10167;BME280;62970;53.130;8.244;2023-02-22T17:15:03;101136.94;;;10.18;70.23
10167;BME280;62970;53.130;8.244;2023-02-22T17:17:32;101131.75;;;10.16;70.72
10167;BME280;62970;53.130;8.244;2023-02-22T17:20:01;101133.47;;;10.16;70.67
10167;BME280;62970;53.130;8.244;2023-02-22T17:22:39;101133.50;;;10.14;70.43
10167;BME280;62970;53.130;8.244;2023-02-22T17:25:25;101137.00;;;10.12;70.89
10167;BME280;62970;53.130;8.244;2023-02-22T17:27:55;101141.34;;;10.13;70.79
10167;BME280;62970;53.130;8.244;2023-02-22T17:30:26;101139.66;;;10.10;70.64
10167;BME280;62970;53.130;8.244;2023-02-22T17:33:00;101135.34;;;10.08;71.04
10167;BME280;62970;53.130;8.244;2023-02-22T17:35:36;101141.44;;;10.07;71.16
10167;BME280;62970;53.130;8.244;2023-02-22T17:38:10;101147.56;;;10.04;70.86
10167;BME280;62970;53.130;8.244;2023-02-22T17:40:46;101145.84;;;10.02;70.71
10167;BME280;62970;53.130;8.244;2023-02-22T17:43:17;101152.81;;;10.00;70.90
10167;BME280;62970;53.130;8.244;2023-02-22T17:45:48;101148.47;;;9.99;70.87
10167;BME280;62970;53.130;8.244;2023-02-22T17:48:19;101149.38;;;9.98;71.02
10167;BME280;62970;53.130;8.244;2023-02-22T17:50:48;101142.44;;;9.97;71.34
10167;BME280;62970;53.130;8.244;2023-02-22T17:53:21;101141.59;;;9.95;71.05
10167;BME280;62970;53.130;8.244;2023-02-22T17:55:50;101147.69;;;9.94;71.12
10167;BME280;62970;53.130;8.244;2023-02-22T17:58:22;101152.06;;;9.92;71.28
10167;BME280;62970;53.130;8.244;2023-02-22T18:00:55;101146.88;;;9.90;71.18
10167;BME280;62970;53.130;8.244;2023-02-22T18:03:26;101146.91;;;9.88;71.30
10167;BME280;62970;53.130;8.244;2023-02-22T18:05:59;101141.72;;;9.87;71.10
10167;BME280;62970;53.130;8.244;2023-02-22T18:08:31;101142.63;;;9.84;71.15
10167;BME280;62970;53.130;8.244;2023-02-22T18:11:08;101138.31;;;9.82;71.04
10167;BME280;62970;53.130;8.244;2023-02-22T18:13:41;101145.25;;;9.81;71.49
10167;BME280;62970;53.130;8.244;2023-02-22T18:16:10;101145.31;;;9.78;71.30
10167;BME280;62970;53.130;8.244;2023-02-22T18:18:43;101150.53;;;9.77;71.31
10167;BME280;62970;53.130;8.244;2023-02-22T18:21:15;101136.69;;;9.73;71.04
10167;BME280;62970;53.130;8.244;2023-02-22T18:23:48;101146.28;;;9.71;71.43
10167;BME280;62970;53.130;8.244;2023-02-22T18:26:23;101143.69;;;9.70;71.28
10167;BME280;62970;53.130;8.244;2023-02-22T18:28:53;101146.31;;;9.68;71.50
10167;BME280;62970;53.130;8.244;2023-02-22T18:31:29;101148.09;;;9.66;71.46
10167;BME280;62970;53.130;8.244;2023-02-22T18:33:58;101144.66;;;9.64;71.57
10167;BME280;62970;53.130;8.244;2023-02-22T18:36:40;101142.09;;;9.61;71.07
10167;BME280;62970;53.130;8.244;2023-02-22T18:39:12;101140.41;;;9.57;71.14
10167;BME280;62970;53.130;8.244;2023-02-22T18:41:42;101143.03;;;9.54;71.22
10167;BME280;62970;53.130;8.244;2023-02-22T18:44:15;101143.97;;;9.50;70.98
10167;BME280;62970;53.130;8.244;2023-02-22T18:46:50;101144.00;;;9.47;71.47
10167;BME280;62970;53.130;8.244;2023-02-22T18:49:23;101146.66;;;9.42;71.53
10167;BME280;62970;53.130;8.244;2023-02-22T18:51:59;101144.97;;;9.40;71.32
10167;BME280;62970;53.130;8.244;2023-02-22T18:54:32;101141.53;;;9.36;71.22
10167;BME280;62970;53.130;8.244;2023-02-22T18:57:03;101136.34;;;9.35;71.74
10167;BME280;62970;53.130;8.244;2023-02-22T18:59:33;101139.88;;;9.32;71.37
10167;BME280;62970;53.130;8.244;2023-02-22T19:02:03;101139.88;;;9.31;71.67
10167;BME280;62970;53.130;8.244;2023-02-22T19:04:35;101126.91;;;9.28;71.61
10167;BME280;62970;53.130;8.244;2023-02-22T19:07:04;101138.19;;;9.27;71.45
10167;BME280;62970;53.130;8.244;2023-02-22T19:09:39;101126.94;;;9.24;71.67
10167;BME280;62970;53.130;8.244;2023-02-22T19:12:10;101128.72;;;9.22;71.70
10167;BME280;62970;53.130;8.244;2023-02-22T19:14:44;101120.06;;;9.20;71.92
10167;BME280;62970;53.130;8.244;2023-02-22T19:17:15;101120.97;;;9.18;71.33
10167;BME280;62970;53.130;8.244;2023-02-22T19:19:49;101119.28;;;9.14;71.51
10167;BME280;62970;53.130;8.244;2023-02-22T19:22:21;101120.16;;;9.11;71.53
10167;BME280;62970;53.130;8.244;2023-02-22T19:24:56;101128.88;;;9.09;71.74
10167;BME280;62970;53.130;8.244;2023-02-22T19:27:26;101134.09;;;9.07;71.99
10167;BME280;62970;53.130;8.244;2023-02-22T19:29:58;101131.53;;;9.03;71.65
10167;BME280;62970;53.130;8.244;2023-02-22T19:32:29;101126.38;;;9.01;72.09
10167;BME280;62970;53.130;8.244;2023-02-22T19:35:02;101126.41;;;8.98;72.08
10167;BME280;62970;53.130;8.244;2023-02-22T19:37:33;101132.47;;;8.97;72.11
10167;BME280;62970;53.130;8.244;2023-02-22T19:40:09;101130.78;;;8.95;71.75
10167;BME280;62970;53.130;8.244;2023-02-22T22:31:36;101137.97;;;7.52;74.29
10167;BME280;62970;53.130;8.244;2023-02-22T22:34:12;101142.28;;;7.54;74.61
10167;BME280;62970;53.130;8.244;2023-02-22T22:36:43;101136.22;;;7.58;74.59
10167;BME280;62970;53.130;8.244;2023-02-22T22:39:21;101143.13;;;7.59;74.45
10167;BME280;62970;53.130;8.244;2023-02-22T22:41:52;101145.72;;;7.61;74.02
10167;BME280;62970;53.130;8.244;2023-02-22T22:44:31;101147.44;;;7.63;73.91
10167;BME280;62970;53.130;8.244;2023-02-22T22:47:22;101150.88;;;7.66;73.78
10167;BME280;62970;53.130;8.244;2023-02-22T22:49:52;101150.00;;;7.67;73.92
10167;BME280;62970;53.130;8.244;2023-02-22T22:52:28;101150.00;;;7.70;73.94
10167;BME280;62970;53.130;8.244;2023-02-22T22:55:05;101148.28;;;7.69;73.60
10167;BME280;62970;53.130;8.244;2023-02-22T22:57:37;101148.25;;;7.70;73.92
10167;BME280;62970;53.130;8.244;2023-02-22T23:00:17;101152.59;;;7.71;73.51
10167;BME280;62970;53.130;8.244;2023-02-22T23:02:58;101143.94;;;7.71;73.71
10167;BME280;62970;53.130;8.244;2023-02-22T23:05:33;101150.84;;;7.72;73.98
10167;BME280;62970;53.130;8.244;2023-02-22T23:08:11;101162.97;;;7.73;73.44
10167;BME280;62970;53.130;8.244;2023-02-22T23:10:41;101156.91;;;7.74;73.92
10167;BME280;62970;53.130;8.244;2023-02-22T23:13:15;101156.91;;;7.74;73.91